sensor_id;sensor_type;location;lat;lon;timestamp;pressure;altitude;pressure_sealevel;temperature;humidity
41062;BME280;26812;42.662;23.352;2023-10-08T00:01:08;95366.22;;;13.37;48.91
41062;BME280;26812;42.662;23.352;2023-10-08T00:03:36;95357.75;;;13.39;48.30
41062;BME280;26812;42.662;23.352;2023-10-08T00:06:03;95356.31;;;13.41;48.99
41062;BME280;26812;42.662;23.352;2023-10-08T00:08:32;95345.34;;;13.38;49.02
41062;BME280;26812;42.662;23.352;2023-10-08T00:10:58;95355.34;;;13.54;48.88
41062;BME280;26812;42.662;23.352;2023-10-08T00:13:31;95341.34;;;13.44;48.10
41062;BME280;26812;42.662;23.352;2023-10-08T00:15:56;95345.81;;;13.48;47.35
41062;BME280;26812;42.662;23.352;2023-10-08T00:18:22;95344.38;;;13.51;48.49
41062;BME280;26812;42.662;23.352;2023-10-08T00:20:49;95337.78;;;13.22;49.10
41062;BME280;26812;42.662;23.352;2023-10-08T00:23:41;95336.34;;;12.99;50.01
41062;BME280;26812;42.662;23.352;2023-10-08T00:26:25;95341.59;;;13.04;50.21
41062;BME280;26812;42.662;23.352;2023-10-08T00:28:58;95325.69;;;13.20;49.70
41062;BME280;26812;42.662;23.352;2023-10-08T00:31:32;95337.59;;;13.27;49.36
41062;BME280;26812;42.662;23.352;2023-10-08T00:34:03;95340.88;;;13.42;49.57
41062;BME280;26812;42.662;23.352;2023-10-08T00:36:31;95332.66;;;13.29;50.46
41062;BME280;26812;42.662;23.352;2023-10-08T00:38:57;95336.28;;;13.33;48.95
41062;BME280;26812;42.662;23.352;2023-10-08T00:41:26;95333.59;;;13.33;48.88
41062;BME280;26812;42.662;23.352;2023-10-08T00:43:57;95323.56;;;13.34;48.33
41062;BME280;26812;42.662;23.352;2023-10-08T00:46:25;95325.91;;;13.44;48.65
41062;BME280;26812;42.662;23.352;2023-10-08T00:48:59;95333.59;;;13.33;49.64
41062;BME280;26812;42.662;23.352;2023-10-08T00:51:43;95320.28;;;13.20;49.80
41062;BME280;26812;42.662;23.352;2023-10-08T00:54:12;95326.31;;;13.25;49.70
41062;BME280;26812;42.662;23.352;2023-10-08T00:56:46;95315.44;;;13.34;48.83
41062;BME280;26812;42.662;23.352;2023-10-08T00:59:17;95320.97;;;13.46;48.71
41062;BME280;26812;42.662;23.352;2023-10-08T01:01:47;95314.97;;;13.32;49.15
41062;BME280;26812;42.662;23.352;2023-10-08T01:04:25;95318.84;;;13.22;49.60
41062;BME280;26812;42.662;23.352;2023-10-08T01:07:01;95327.59;;;13.02;50.22
41062;BME280;26812;42.662;23.352;2023-10-08T01:09:27;95331.09;;;13.20;49.80
41062;BME280;26812;42.662;23.352;2023-10-08T01:12:19;95329.03;;;12.99;50.23
41062;BME280;26812;42.662;23.352;2023-10-08T01:14:55;95309.81;;;12.92;49.40
41062;BME280;26812;42.662;23.352;2023-10-08T01:17:24;95320.75;;;13.22;48.76
41062;BME280;26812;42.662;23.352;2023-10-08T01:19:50;95323.22;;;13.35;49.87
41062;BME280;26812;42.662;23.352;2023-10-08T01:22:41;95305.03;;;12.98;50.39
41062;BME280;26812;42.662;23.352;2023-10-08T01:25:07;95316.63;;;12.98;50.24
41062;BME280;26812;42.662;23.352;2023-10-08T01:27:35;95328.50;;;13.15;49.55
41062;BME280;26812;42.662;23.352;2023-10-08T01:30:03;95324.09;;;13.19;50.26
41062;BME280;26812;42.662;23.352;2023-10-08T01:32:43;95323.28;;;13.10;50.44
41062;BME280;26812;42.662;23.352;2023-10-08T01:35:08;95321.53;;;13.22;49.95
41062;BME280;26812;42.662;23.352;2023-10-08T01:37:48;95308.69;;;12.93;50.16
41062;BME280;26812;42.662;23.352;2023-10-08T01:40:15;95325.47;;;13.16;49.07
41062;BME280;26812;42.662;23.352;2023-10-08T01:42:43;95329.97;;;13.03;49.09
41062;BME280;26812;42.662;23.352;2023-10-08T01:45:08;95322.38;;;12.97;49.51
41062;BME280;26812;42.662;23.352;2023-10-08T01:47:38;95305.91;;;12.55;50.45
41062;BME280;26812;42.662;23.352;2023-10-08T01:50:04;95328.94;;;12.61;50.95
41062;BME280;26812;42.662;23.352;2023-10-08T01:52:46;95316.81;;;12.76;50.19
41062;BME280;26812;42.662;23.352;2023-10-08T01:55:12;95319.41;;;12.64;50.83
41062;BME280;26812;42.662;23.352;2023-10-08T01:57:42;95323.19;;;12.54;51.14
41062;BME280;26812;42.662;23.352;2023-10-08T02:00:09;95324.78;;;12.72;51.01
41062;BME280;26812;42.662;23.352;2023-10-08T02:02:35;95323.84;;;12.51;50.97
41062;BME280;26812;42.662;23.352;2023-10-08T02:05:00;95310.78;;;12.19;51.63
41062;BME280;26812;42.662;23.352;2023-10-08T02:07:26;95316.38;;;12.39;51.38
41062;BME280;26812;42.662;23.352;2023-10-08T02:09:51;95321.78;;;12.31;51.47
41062;BME280;26812;42.662;23.352;2023-10-08T02:12:18;95315.13;;;12.28;50.88
41062;BME280;26812;42.662;23.352;2023-10-08T02:14:43;95300.97;;;12.31;51.09
41062;BME280;26812;42.662;23.352;2023-10-08T02:17:09;95328.28;;;12.47;50.82
41062;BME280;26812;42.662;23.352;2023-10-08T02:19:35;95331.47;;;12.66;50.71
41062;BME280;26812;42.662;23.352;2023-10-08T02:22:02;95321.31;;;12.46;51.73
41062;BME280;26812;42.662;23.352;2023-10-08T02:24:31;95317.81;;;12.37;52.20
41062;BME280;26812;42.662;23.352;2023-10-08T02:26:56;95300.31;;;12.43;51.38
41062;BME280;26812;42.662;23.352;2023-10-08T02:29:26;95312.56;;;12.58;51.14
41062;BME280;26812;42.662;23.352;2023-10-08T02:31:51;95304.13;;;12.59;51.45
41062;BME280;26812;42.662;23.352;2023-10-08T02:34:25;95288.06;;;12.54;50.79
41062;BME280;26812;42.662;23.352;2023-10-08T02:36:51;95311.13;;;12.69;51.27
41062;BME280;26812;42.662;23.352;2023-10-08T02:39:24;95313.31;;;12.75;51.24
41062;BME280;26812;42.662;23.352;2023-10-08T02:41:53;95294.59;;;12.53;51.54
41062;BME280;26812;42.662;23.352;2023-10-08T02:44:22;95279.81;;;12.51;50.95
41062;BME280;26812;42.662;23.352;2023-10-08T02:46:48;95302.09;;;12.30;51.75
41062;BME280;26812;42.662;23.352;2023-10-08T02:49:14;95296.06;;;12.25;51.46
41062;BME280;26812;42.662;23.352;2023-10-08T02:51:45;95304.44;;;12.23;52.58
41062;BME280;26812;42.662;23.352;2023-10-08T02:54:11;95294.44;;;12.15;52.78
41062;BME280;26812;42.662;23.352;2023-10-08T02:56:52;95311.13;;;12.43;52.02
41062;BME280;26812;42.662;23.352;2023-10-08T02:59:20;95305.06;;;12.11;52.58
41062;BME280;26812;42.662;23.352;2023-10-08T03:01:50;95306.97;;;12.02;52.80
41062;BME280;26812;42.662;23.352;2023-10-08T03:04:21;95311.13;;;12.08;52.86
41062;BME280;26812;42.662;23.352;2023-10-08T03:06:48;95306.41;;;11.74;54.03
41062;BME280;26812;42.662;23.352;2023-10-08T03:09:21;95313.88;;;11.69;54.81
41062;BME280;26812;42.662;23.352;2023-10-08T03:11:50;95297.44;;;11.96;53.93
41062;BME280;26812;42.662;23.352;2023-10-08T03:14:17;95306.97;;;12.02;53.50
41062;BME280;26812;42.662;23.352;2023-10-08T03:16:53;95312.63;;;11.75;53.96
41062;BME280;26812;42.662;23.352;2023-10-08T03:19:21;95306.34;;;11.48;54.83
41062;BME280;26812;42.662;23.352;2023-10-08T03:21:48;95299.44;;;11.73;54.37
41062;BME280;26812;42.662;23.352;2023-10-08T03:24:17;95307.19;;;11.66;54.68
41062;BME280;26812;42.662;23.352;2023-10-08T03:26:58;95301.34;;;11.73;54.39
41062;BME280;26812;42.662;23.352;2023-10-08T03:29:37;95301.06;;;11.83;54.62
41062;BME280;26812;42.662;23.352;2023-10-08T03:32:10;95296.91;;;11.77;55.32
41062;BME280;26812;42.662;23.352;2023-10-08T03:34:44;95287.53;;;11.74;54.74
41062;BME280;26812;42.662;23.352;2023-10-08T03:37:12;95276.56;;;11.71;54.89
41062;BME280;26812;42.662;23.352;2023-10-08T03:39:45;95290.31;;;11.52;56.30
41062;BME280;26812;42.662;23.352;2023-10-08T03:42:23;95297.94;;;11.50;56.96
41062;BME280;26812;42.662;23.352;2023-10-08T03:44:52;95286.06;;;11.60;56.78
41062;BME280;26812;42.662;23.352;2023-10-08T03:47:20;95291.66;;;11.72;56.58
41062;BME280;26812;42.662;23.352;2023-10-08T03:49:48;95281.50;;;11.69;56.60
41062;BME280;26812;42.662;23.352;2023-10-08T03:52:16;95283.47;;;11.46;57.25
41062;BME280;26812;42.662;23.352;2023-10-08T03:54:42;95281.41;;;11.43;57.60
41062;BME280;26812;42.662;23.352;2023-10-08T03:57:14;95278.75;;;11.60;56.98
41062;BME280;26812;42.662;23.352;2023-10-08T03:59:40;95274.13;;;11.52;57.11
41062;BME280;26812;42.662;23.352;2023-10-08T04:02:07;95271.16;;;11.14;58.03
41062;BME280;26812;42.662;23.352;2023-10-08T04:04:35;95276.53;;;11.14;58.39
41062;BME280;26812;42.662;23.352;2023-10-08T04:07:19;95270.19;;;10.79;58.92
41062;BME280;26812;42.662;23.352;2023-10-08T04:10:04;95268.81;;;10.90;57.94
41062;BME280;26812;42.662;23.352;2023-10-08T04:12:33;95237.84;;;10.48;58.55
41062;BME280;26812;42.662;23.352;2023-10-08T04:15:03;95264.97;;;10.82;58.24
41062;BME280;26812;42.662;23.352;2023-10-08T04:17:33;95272.16;;;10.96;58.26
41062;BME280;26812;42.662;23.352;2023-10-08T04:20:08;95277.78;;;11.08;58.58
41062;BME280;26812;42.662;23.352;2023-10-08T04:22:54;95263.88;;;11.23;58.13
41062;BME280;26812;42.662;23.352;2023-10-08T04:25:20;95264.78;;;11.10;58.84
41062;BME280;26812;42.662;23.352;2023-10-08T04:27:45;95274.47;;;11.11;58.24
41062;BME280;26812;42.662;23.352;2023-10-08T04:30:15;95252.44;;;11.17;57.52
41062;BME280;26812;42.662;23.352;2023-10-08T04:32:41;95267.50;;;11.10;58.45
41062;BME280;26812;42.662;23.352;2023-10-08T04:35:06;95267.00;;;11.08;58.48
41062;BME280;26812;42.662;23.352;2023-10-08T04:37:33;95262.59;;;11.20;58.45
41062;BME280;26812;42.662;23.352;2023-10-08T04:39:59;95272.25;;;11.13;58.50
41062;BME280;26812;42.662;23.352;2023-10-08T04:42:25;95271.41;;;11.35;57.80
41062;BME280;26812;42.662;23.352;2023-10-08T04:44:53;95273.31;;;11.43;57.41
41062;BME280;26812;42.662;23.352;2023-10-08T04:47:19;95284.59;;;11.05;58.16
41062;BME280;26812;42.662;23.352;2023-10-08T04:49:57;95284.00;;;11.17;58.53
41062;BME280;26812;42.662;23.352;2023-10-08T04:52:22;95286.66;;;11.39;57.51
41062;BME280;26812;42.662;23.352;2023-10-08T04:54:50;95261.56;;;11.39;56.61
41062;BME280;26812;42.662;23.352;2023-10-08T04:57:20;95282.88;;;11.58;56.59
41062;BME280;26812;42.662;23.352;2023-10-08T04:59:51;95281.91;;;11.45;56.65
41062;BME280;26812;42.662;23.352;2023-10-08T05:02:17;95267.19;;;11.11;57.36
41062;BME280;26812;42.662;23.352;2023-10-08T05:04:50;95283.53;;;11.15;57.86
41062;BME280;26812;42.662;23.352;2023-10-08T05:07:23;95287.16;;;11.10;57.91
41062;BME280;26812;42.662;23.352;2023-10-08T05:09:52;95283.94;;;11.39;56.88
41062;BME280;26812;42.662;23.352;2023-10-08T05:12:36;95292.59;;;11.28;57.99
41062;BME280;26812;42.662;23.352;2023-10-08T05:15:24;95272.03;;;11.01;58.38
41062;BME280;26812;42.662;23.352;2023-10-08T05:17:59;95285.53;;;11.40;57.53
41062;BME280;26812;42.662;23.352;2023-10-08T05:20:38;95293.56;;;11.32;57.45
41062;BME280;26812;42.662;23.352;2023-10-08T05:23:17;95296.06;;;11.59;57.43
41062;BME280;26812;42.662;23.352;2023-10-08T05:26:06;95296.88;;;11.68;56.95
41062;BME280;26812;42.662;23.352;2023-10-08T05:28:36;95299.00;;;11.80;56.81
41062;BME280;26812;42.662;23.352;2023-10-08T05:31:14;95283.88;;;11.70;56.82
41062;BME280;26812;42.662;23.352;2023-10-08T05:33:40;95288.31;;;11.75;57.37
41062;BME280;26812;42.662;23.352;2023-10-08T05:36:34;95286.19;;;11.55;57.93
41062;BME280;26812;42.662;23.352;2023-10-08T05:39:15;95299.31;;;11.87;57.33
41062;BME280;26812;42.662;23.352;2023-10-08T05:41:50;95301.38;;;11.81;57.53
41062;BME280;26812;42.662;23.352;2023-10-08T05:44:30;95302.06;;;12.39;56.37
41062;BME280;26812;42.662;23.352;2023-10-08T05:47:05;95314.94;;;12.42;56.28
41062;BME280;26812;42.662;23.352;2023-10-08T05:49:50;95305.41;;;12.62;55.79
41062;BME280;26812;42.662;23.352;2023-10-08T05:52:47;95299.13;;;13.04;54.42
41062;BME280;26812;42.662;23.352;2023-10-08T05:55:30;95299.06;;;13.13;54.11
41062;BME280;26812;42.662;23.352;2023-10-08T05:58:06;95314.91;;;12.94;54.79
41062;BME280;26812;42.662;23.352;2023-10-08T06:00:45;95318.00;;;13.13;53.62
41062;BME280;26812;42.662;23.352;2023-10-08T06:03:30;95311.38;;;13.02;54.37
41062;BME280;26812;42.662;23.352;2023-10-08T06:06:06;95307.13;;;13.48;52.22
41062;BME280;26812;42.662;23.352;2023-10-08T06:08:41;95300.13;;;13.76;52.02
41062;BME280;26812;42.662;23.352;2023-10-08T06:11:25;95311.41;;;14.08;50.98
41062;BME280;26812;42.662;23.352;2023-10-08T06:14:09;95307.38;;;14.14;50.30
41062;BME280;26812;42.662;23.352;2023-10-08T06:16:44;95299.53;;;14.21;48.48
41062;BME280;26812;42.662;23.352;2023-10-08T06:19:12;95293.53;;;14.57;48.65
41062;BME280;26812;42.662;23.352;2023-10-08T06:21:39;95297.16;;;14.94;48.03
41062;BME280;26812;42.662;23.352;2023-10-08T06:24:05;95292.41;;;14.91;48.26
41062;BME280;26812;42.662;23.352;2023-10-08T06:26:42;95255.94;;;15.13;47.02
41062;BME280;26812;42.662;23.352;2023-10-08T06:29:09;95292.69;;;15.68;45.19
41062;BME280;26812;42.662;23.352;2023-10-08T06:31:45;95293.78;;;15.91;44.27
41062;BME280;26812;42.662;23.352;2023-10-08T06:34:16;95309.03;;;16.20;43.71
41062;BME280;26812;42.662;23.352;2023-10-08T06:36:49;95294.94;;;16.42;42.78
41062;BME280;26812;42.662;23.352;2023-10-08T06:39:22;95285.91;;;16.38;42.90
41062;BME280;26812;42.662;23.352;2023-10-08T06:41:53;95303.00;;;16.39;42.91
41062;BME280;26812;42.662;23.352;2023-10-08T06:44:19;95294.91;;;16.67;42.09
41062;BME280;26812;42.662;23.352;2023-10-08T06:46:44;95273.50;;;16.53;42.17
41062;BME280;26812;42.662;23.352;2023-10-08T06:49:11;95280.28;;;16.59;42.36
41062;BME280;26812;42.662;23.352;2023-10-08T06:51:42;95286.72;;;16.95;41.58
41062;BME280;26812;42.662;23.352;2023-10-08T06:54:08;95289.25;;;17.16;41.17
41062;BME280;26812;42.662;23.352;2023-10-08T06:56:39;95283.28;;;17.26;40.67
41062;BME280;26812;42.662;23.352;2023-10-08T06:59:11;95275.28;;;17.49;40.98
41062;BME280;26812;42.662;23.352;2023-10-08T07:01:36;95279.25;;;17.83;39.93
41062;BME280;26812;42.662;23.352;2023-10-08T07:04:06;95299.06;;;18.15;39.40
41062;BME280;26812;42.662;23.352;2023-10-08T07:06:32;95287.25;;;18.26;39.41
41062;BME280;26812;42.662;23.352;2023-10-08T07:09:00;95291.47;;;18.98;37.82
41062;BME280;26812;42.662;23.352;2023-10-08T07:11:31;95281.41;;;19.67;36.34
41062;BME280;26812;42.662;23.352;2023-10-08T07:14:03;95290.69;;;20.11;35.78
41062;BME280;26812;42.662;23.352;2023-10-08T07:16:32;95290.28;;;20.36;35.04
41062;BME280;26812;42.662;23.352;2023-10-08T07:18:58;95275.59;;;20.77;34.56
41062;BME280;26812;42.662;23.352;2023-10-08T07:21:28;95287.34;;;21.49;33.24
41062;BME280;26812;42.662;23.352;2023-10-08T07:23:55;95268.44;;;21.81;32.27
41062;BME280;26812;42.662;23.352;2023-10-08T07:26:28;95267.78;;;21.98;32.34
41062;BME280;26812;42.662;23.352;2023-10-08T07:29:04;95268.69;;;22.13;31.84
41062;BME280;26812;42.662;23.352;2023-10-08T07:31:37;95253.03;;;22.93;30.75
41062;BME280;26812;42.662;23.352;2023-10-08T07:34:07;95270.91;;;23.99;29.33
41062;BME280;26812;42.662;23.352;2023-10-08T07:36:45;95244.16;;;23.81;29.01
41062;BME280;26812;42.662;23.352;2023-10-08T07:39:13;95249.63;;;23.39;29.39
41062;BME280;26812;42.662;23.352;2023-10-08T07:41:57;95246.09;;;23.45;29.60
41062;BME280;26812;42.662;23.352;2023-10-08T07:44:25;95230.72;;;23.23;29.92
41062;BME280;26812;42.662;23.352;2023-10-08T07:46:51;95238.88;;;22.84;30.52
41062;BME280;26812;42.662;23.352;2023-10-08T07:49:20;95242.53;;;22.29;31.52
41062;BME280;26812;42.662;23.352;2023-10-08T07:51:45;95235.59;;;21.91;31.87
41062;BME280;26812;42.662;23.352;2023-10-08T07:54:23;95244.94;;;21.83;32.00
41062;BME280;26812;42.662;23.352;2023-10-08T07:57:00;95229.34;;;21.94;32.20
41062;BME280;26812;42.662;23.352;2023-10-08T07:59:40;95219.03;;;21.74;32.25
41062;BME280;26812;42.662;23.352;2023-10-08T08:02:13;95230.91;;;21.95;32.00
41062;BME280;26812;42.662;23.352;2023-10-08T08:04:40;95231.97;;;21.77;32.54
41062;BME280;26812;42.662;23.352;2023-10-08T08:07:09;95241.28;;;21.65;32.38
41062;BME280;26812;42.662;23.352;2023-10-08T08:09:42;95234.50;;;21.52;32.61
41062;BME280;26812;42.662;23.352;2023-10-08T08:12:13;95228.78;;;21.71;32.61
41062;BME280;26812;42.662;23.352;2023-10-08T08:14:38;95216.44;;;21.44;33.74
41062;BME280;26812;42.662;23.352;2023-10-08T08:17:07;95215.59;;;21.39;32.67
41062;BME280;26812;42.662;23.352;2023-10-08T08:19:42;95213.06;;;21.20;33.21
41062;BME280;26812;42.662;23.352;2023-10-08T08:22:10;95210.06;;;21.32;33.19
41062;BME280;26812;42.662;23.352;2023-10-08T08:24:40;95206.91;;;21.30;33.24
41062;BME280;26812;42.662;23.352;2023-10-08T08:27:10;95194.28;;;20.82;34.29
41062;BME280;26812;42.662;23.352;2023-10-08T08:29:52;95196.22;;;21.18;34.20
41062;BME280;26812;42.662;23.352;2023-10-08T08:32:21;95201.13;;;21.43;34.23
41062;BME280;26812;42.662;23.352;2023-10-08T08:34:47;95186.16;;;21.77;34.40
41062;BME280;26812;42.662;23.352;2023-10-08T08:39:41;95175.81;;;22.18;31.90
41062;BME280;26812;42.662;23.352;2023-10-08T08:42:07;95193.25;;;22.58;29.71
41062;BME280;26812;42.662;23.352;2023-10-08T08:44:36;95188.94;;;22.57;28.20
41062;BME280;26812;42.662;23.352;2023-10-08T08:47:12;95182.25;;;22.58;28.18
41062;BME280;26812;42.662;23.352;2023-10-08T08:49:45;95169.25;;;22.37;27.98
41062;BME280;26812;42.662;23.352;2023-10-08T08:52:12;95168.97;;;22.67;27.48
41062;BME280;26812;42.662;23.352;2023-10-08T08:54:38;95159.56;;;22.79;29.87
41062;BME280;26812;42.662;23.352;2023-10-08T08:57:04;95157.69;;;23.11;27.79
41062;BME280;26812;42.662;23.352;2023-10-08T08:59:31;95181.66;;;23.46;26.40
41062;BME280;26812;42.662;23.352;2023-10-08T09:01:58;95170.28;;;23.48;26.25
41062;BME280;26812;42.662;23.352;2023-10-08T09:04:31;95176.16;;;23.53;26.72
41062;BME280;26812;42.662;23.352;2023-10-08T09:06:58;95165.13;;;22.89;26.89
41062;BME280;26812;42.662;23.352;2023-10-08T09:09:32;95176.06;;;22.79;26.48
41062;BME280;26812;42.662;23.352;2023-10-08T09:11:58;95178.50;;;22.98;27.60
41062;BME280;26812;42.662;23.352;2023-10-08T09:14:26;95166.34;;;23.10;26.79
41062;BME280;26812;42.662;23.352;2023-10-08T09:16:53;95148.28;;;23.02;26.82
41062;BME280;26812;42.662;23.352;2023-10-08T09:19:23;95136.47;;;22.90;27.13
41062;BME280;26812;42.662;23.352;2023-10-08T09:22:09;95161.19;;;22.94;27.82
41062;BME280;26812;42.662;23.352;2023-10-08T09:24:41;95153.38;;;23.21;26.63
41062;BME280;26812;42.662;23.352;2023-10-08T09:27:10;95156.13;;;23.46;27.77
41062;BME280;26812;42.662;23.352;2023-10-08T09:29:43;95143.94;;;23.82;26.10
41062;BME280;26812;42.662;23.352;2023-10-08T09:32:11;95151.31;;;24.35;27.05
41062;BME280;26812;42.662;23.352;2023-10-08T09:34:36;95140.31;;;24.25;25.23
41062;BME280;26812;42.662;23.352;2023-10-08T09:37:02;95146.56;;;24.36;27.42
41062;BME280;26812;42.662;23.352;2023-10-08T09:39:29;95148.41;;;24.67;24.91
41062;BME280;26812;42.662;23.352;2023-10-08T09:42:00;95139.03;;;24.47;24.52
41062;BME280;26812;42.662;23.352;2023-10-08T09:44:28;95147.41;;;24.15;25.63
41062;BME280;26812;42.662;23.352;2023-10-08T09:47:03;95129.00;;;23.98;25.55
41062;BME280;26812;42.662;23.352;2023-10-08T09:52:24;95132.09;;;24.94;24.81
41062;BME280;26812;42.662;23.352;2023-10-08T09:55:00;95144.28;;;25.04;24.52
41062;BME280;26812;42.662;23.352;2023-10-08T09:57:29;95128.31;;;24.70;24.93
41062;BME280;26812;42.662;23.352;2023-10-08T09:59:54;95122.09;;;24.59;24.68
41062;BME280;26812;42.662;23.352;2023-10-08T10:02:23;95116.56;;;24.59;24.98
41062;BME280;26812;42.662;23.352;2023-10-08T10:04:52;95119.38;;;24.52;25.34
41062;BME280;26812;42.662;23.352;2023-10-08T10:07:20;95113.19;;;24.12;25.24
41062;BME280;26812;42.662;23.352;2023-10-08T10:09:50;95116.41;;;23.97;25.92
41062;BME280;26812;42.662;23.352;2023-10-08T10:12:20;95117.53;;;24.10;25.92
41062;BME280;26812;42.662;23.352;2023-10-08T10:14:55;95119.09;;;24.11;25.45
41062;BME280;26812;42.662;23.352;2023-10-08T10:17:25;95108.16;;;23.97;25.30
41062;BME280;26812;42.662;23.352;2023-10-08T10:19:55;95105.31;;;24.18;25.42
41062;BME280;26812;42.662;23.352;2023-10-08T10:22:28;95098.59;;;24.33;25.06
41062;BME280;26812;42.662;23.352;2023-10-08T10:24:54;95071.53;;;24.10;25.50
41062;BME280;26812;42.662;23.352;2023-10-08T10:27:21;95099.94;;;24.73;25.12
41062;BME280;26812;42.662;23.352;2023-10-08T10:29:47;95096.63;;;25.03;24.34
41062;BME280;26812;42.662;23.352;2023-10-08T10:32:14;95091.63;;;25.36;24.36
41062;BME280;26812;42.662;23.352;2023-10-08T10:34:43;95101.63;;;25.23;24.79
41062;BME280;26812;42.662;23.352;2023-10-08T10:37:10;95075.34;;;25.07;24.36
41062;BME280;26812;42.662;23.352;2023-10-08T10:39:57;95083.50;;;25.22;25.24
41062;BME280;26812;42.662;23.352;2023-10-08T10:42:26;95065.31;;;25.28;25.15
41062;BME280;26812;42.662;23.352;2023-10-08T10:44:53;95077.56;;;25.68;25.00
41062;BME280;26812;42.662;23.352;2023-10-08T10:47:21;95063.00;;;25.64;24.47
41062;BME280;26812;42.662;23.352;2023-10-08T10:49:51;95085.50;;;26.00;25.51
41062;BME280;26812;42.662;23.352;2023-10-08T10:52:25;95064.94;;;26.08;24.40
41062;BME280;26812;42.662;23.352;2023-10-08T10:55:05;95060.25;;;26.32;24.36
41062;BME280;26812;42.662;23.352;2023-10-08T10:57:46;95042.59;;;26.26;24.61
41062;BME280;26812;42.662;23.352;2023-10-08T11:00:19;95056.00;;;26.27;24.91
41062;BME280;26812;42.662;23.352;2023-10-08T11:02:57;95044.69;;;26.18;24.45
41062;BME280;26812;42.662;23.352;2023-10-08T11:05:34;95057.56;;;26.28;24.43
41062;BME280;26812;42.662;23.352;2023-10-08T11:08:06;95043.03;;;25.90;24.41
41062;BME280;26812;42.662;23.352;2023-10-08T11:10:39;95052.88;;;25.91;24.35
41062;BME280;26812;42.662;23.352;2023-10-08T11:13:08;95036.25;;;26.29;24.68
41062;BME280;26812;42.662;23.352;2023-10-08T11:15:42;95052.81;;;26.59;24.45
41062;BME280;26812;42.662;23.352;2023-10-08T11:18:09;95047.34;;;26.83;24.72
41062;BME280;26812;42.662;23.352;2023-10-08T11:20:35;95008.66;;;26.83;23.91
41062;BME280;26812;42.662;23.352;2023-10-08T11:23:32;95049.22;;;26.89;24.41
41062;BME280;26812;42.662;23.352;2023-10-08T11:26:05;95037.88;;;26.57;24.01
41062;BME280;26812;42.662;23.352;2023-10-08T11:28:39;95031.78;;;26.42;24.40
41062;BME280;26812;42.662;23.352;2023-10-08T11:31:10;95030.59;;;26.09;25.26
41062;BME280;26812;42.662;23.352;2023-10-08T11:33:37;95034.47;;;26.46;25.00
41062;BME280;26812;42.662;23.352;2023-10-08T11:36:04;95033.47;;;26.29;24.88
41062;BME280;26812;42.662;23.352;2023-10-08T11:38:41;95034.81;;;25.87;25.98
41062;BME280;26812;42.662;23.352;2023-10-08T11:41:11;95005.28;;;25.84;25.92
41062;BME280;26812;42.662;23.352;2023-10-08T11:43:39;95039.97;;;25.85;25.42
41062;BME280;26812;42.662;23.352;2023-10-08T11:46:04;95035.38;;;25.71;25.69
41062;BME280;26812;42.662;23.352;2023-10-08T11:48:30;95010.63;;;25.60;26.57
41062;BME280;26812;42.662;23.352;2023-10-08T11:50:57;95031.09;;;25.66;26.34
41062;BME280;26812;42.662;23.352;2023-10-08T11:53:23;95017.63;;;25.31;26.30
41062;BME280;26812;42.662;23.352;2023-10-08T11:55:50;95026.59;;;25.42;27.02
41062;BME280;26812;42.662;23.352;2023-10-08T11:58:19;95012.59;;;25.22;27.35
41062;BME280;26812;42.662;23.352;2023-10-08T12:00:45;95020.88;;;25.22;27.72
41062;BME280;26812;42.662;23.352;2023-10-08T12:03:15;95004.03;;;25.10;27.16
41062;BME280;26812;42.662;23.352;2023-10-08T12:05:52;94996.84;;;24.74;27.74
41062;BME280;26812;42.662;23.352;2023-10-08T12:08:24;95001.47;;;24.88;27.52
41062;BME280;26812;42.662;23.352;2023-10-08T12:10:53;95019.78;;;25.13;27.55
41062;BME280;26812;42.662;23.352;2023-10-08T12:13:25;95000.91;;;25.49;26.81
41062;BME280;26812;42.662;23.352;2023-10-08T12:15:53;95008.38;;;25.52;26.91
41062;BME280;26812;42.662;23.352;2023-10-08T12:18:31;95009.75;;;26.05;26.78
41062;BME280;26812;42.662;23.352;2023-10-08T12:21:01;95010.56;;;26.02;25.78
41062;BME280;26812;42.662;23.352;2023-10-08T12:23:33;95003.09;;;26.29;25.56
41062;BME280;26812;42.662;23.352;2023-10-08T12:26:03;95002.38;;;26.25;25.83
41062;BME280;26812;42.662;23.352;2023-10-08T12:28:29;95011.66;;;26.11;26.14
41062;BME280;26812;42.662;23.352;2023-10-08T12:30:55;94995.97;;;26.31;26.03
41062;BME280;26812;42.662;23.352;2023-10-08T12:33:22;95014.19;;;26.56;26.33
41062;BME280;26812;42.662;23.352;2023-10-08T12:35:52;94997.53;;;26.36;25.80
41062;BME280;26812;42.662;23.352;2023-10-08T12:38:21;95005.75;;;26.40;25.97
41062;BME280;26812;42.662;23.352;2023-10-08T12:40:49;95013.88;;;25.89;26.43
41062;BME280;26812;42.662;23.352;2023-10-08T12:43:22;95007.31;;;25.42;27.00
41062;BME280;26812;42.662;23.352;2023-10-08T12:45:51;95000.47;;;25.16;27.19
41062;BME280;26812;42.662;23.352;2023-10-08T12:48:31;95010.06;;;25.38;27.72
41062;BME280;26812;42.662;23.352;2023-10-08T12:51:07;95011.53;;;25.50;27.62
41062;BME280;26812;42.662;23.352;2023-10-08T12:53:37;94993.41;;;25.87;27.32
41062;BME280;26812;42.662;23.352;2023-10-08T12:56:08;94999.47;;;25.75;27.30
41062;BME280;26812;42.662;23.352;2023-10-08T12:58:42;95002.84;;;25.89;26.89
41062;BME280;26812;42.662;23.352;2023-10-08T13:01:17;94996.03;;;25.97;27.80
41062;BME280;26812;42.662;23.352;2023-10-08T13:03:44;95001.28;;;25.88;28.77
41062;BME280;26812;42.662;23.352;2023-10-08T13:06:14;95015.94;;;25.41;28.29
41062;BME280;26812;42.662;23.352;2023-10-08T13:08:49;94998.84;;;25.19;28.50
41062;BME280;26812;42.662;23.352;2023-10-08T13:11:15;95009.53;;;25.54;27.81
41062;BME280;26812;42.662;23.352;2023-10-08T13:13:49;94996.84;;;25.94;26.61
41062;BME280;26812;42.662;23.352;2023-10-08T13:16:16;94994.19;;;26.18;26.13